sensor_id;sensor_type;location;lat;lon;timestamp;P1;durP1;ratioP1;P2;durP2;ratioP2
63499;SDS011;49654;51.142;14.924;2022-12-19T00:01:10;22.87;;;12.40;;
63499;SDS011;49654;51.142;14.924;2022-12-19T00:03:42;23.77;;;12.00;;
63499;SDS011;49654;51.142;14.924;2022-12-19T00:06:10;23.87;;;12.77;;
63499;SDS011;49654;51.142;14.924;2022-12-19T00:08:39;20.67;;;11.17;;
63499;SDS011;49654;51.142;14.924;2022-12-19T00:11:08;23.30;;;11.50;;
63499;SDS011;49654;51.142;14.924;2022-12-19T00:13:36;21.97;;;12.30;;
63499;SDS011;49654;51.142;14.924;2022-12-19T00:16:04;26.30;;;13.73;;
63499;SDS011;49654;51.142;14.924;2022-12-19T00:18:34;27.83;;;13.80;;
63499;SDS011;49654;51.142;14.924;2022-12-19T00:21:03;23.17;;;12.63;;
63499;SDS011;49654;51.142;14.924;2022-12-19T00:23:31;25.30;;;13.13;;
63499;SDS011;49654;51.142;14.924;2022-12-19T00:26:08;24.80;;;13.23;;
63499;SDS011;49654;51.142;14.924;2022-12-19T00:28:36;27.47;;;13.93;;
63499;SDS011;49654;51.142;14.924;2022-12-19T00:31:04;23.27;;;12.73;;
63499;SDS011;49654;51.142;14.924;2022-12-19T00:33:31;26.57;;;13.20;;
63499;SDS011;49654;51.142;14.924;2022-12-19T00:35:59;27.17;;;13.97;;
63499;SDS011;49654;51.142;14.924;2022-12-19T00:38:27;25.17;;;13.20;;
63499;SDS011;49654;51.142;14.924;2022-12-19T00:40:54;29.77;;;14.50;;
63499;SDS011;49654;51.142;14.924;2022-12-19T00:43:32;25.03;;;13.63;;
63499;SDS011;49654;51.142;14.924;2022-12-19T00:46:00;27.73;;;12.07;;
63499;SDS011;49654;51.142;14.924;2022-12-19T00:48:28;27.60;;;13.53;;
63499;SDS011;49654;51.142;14.924;2022-12-19T00:50:59;28.00;;;13.67;;
63499;SDS011;49654;51.142;14.924;2022-12-19T00:53:26;23.63;;;12.40;;
63499;SDS011;49654;51.142;14.924;2022-12-19T00:55:54;26.33;;;13.67;;
63499;SDS011;49654;51.142;14.924;2022-12-19T00:58:21;23.07;;;12.53;;
63499;SDS011;49654;51.142;14.924;2022-12-19T01:00:50;23.47;;;11.80;;
63499;SDS011;49654;51.142;14.924;2022-12-19T01:03:20;20.70;;;12.17;;
63499;SDS011;49654;51.142;14.924;2022-12-19T01:05:47;26.70;;;13.17;;
63499;SDS011;49654;51.142;14.924;2022-12-19T01:08:15;25.83;;;13.10;;
63499;SDS011;49654;51.142;14.924;2022-12-19T01:10:43;24.43;;;12.37;;
63499;SDS011;49654;51.142;14.924;2022-12-19T01:13:11;21.30;;;11.30;;
63499;SDS011;49654;51.142;14.924;2022-12-19T01:15:37;25.20;;;12.47;;
63499;SDS011;49654;51.142;14.924;2022-12-19T01:18:06;23.30;;;12.43;;
63499;SDS011;49654;51.142;14.924;2022-12-19T01:20:36;24.43;;;12.53;;
63499;SDS011;49654;51.142;14.924;2022-12-19T01:23:04;22.20;;;12.50;;
63499;SDS011;49654;51.142;14.924;2022-12-19T01:25:32;27.93;;;12.83;;
63499;SDS011;49654;51.142;14.924;2022-12-19T01:28:00;23.03;;;13.00;;
63499;SDS011;49654;51.142;14.924;2022-12-19T01:30:27;27.37;;;13.00;;
63499;SDS011;49654;51.142;14.924;2022-12-19T01:32:55;24.53;;;13.30;;
63499;SDS011;49654;51.142;14.924;2022-12-19T01:35:24;24.03;;;12.63;;
63499;SDS011;49654;51.142;14.924;2022-12-19T01:37:51;26.27;;;13.30;;
63499;SDS011;49654;51.142;14.924;2022-12-19T01:40:19;29.37;;;13.27;;
63499;SDS011;49654;51.142;14.924;2022-12-19T01:42:47;26.83;;;12.83;;
63499;SDS011;49654;51.142;14.924;2022-12-19T01:45:28;23.53;;;11.53;;
63499;SDS011;49654;51.142;14.924;2022-12-19T01:47:59;24.77;;;11.77;;
63499;SDS011;49654;51.142;14.924;2022-12-19T01:50:35;24.10;;;11.97;;
63499;SDS011;49654;51.142;14.924;2022-12-19T01:53:06;23.63;;;12.50;;
63499;SDS011;49654;51.142;14.924;2022-12-19T01:55:36;24.83;;;12.77;;
63499;SDS011;49654;51.142;14.924;2022-12-19T01:58:05;22.57;;;12.40;;
63499;SDS011;49654;51.142;14.924;2022-12-19T02:00:33;27.23;;;13.40;;
63499;SDS011;49654;51.142;14.924;2022-12-19T02:03:01;29.13;;;15.13;;
63499;SDS011;49654;51.142;14.924;2022-12-19T02:05:35;27.60;;;13.53;;
63499;SDS011;49654;51.142;14.924;2022-12-19T02:08:03;28.53;;;14.97;;
63499;SDS011;49654;51.142;14.924;2022-12-19T02:10:31;27.10;;;15.03;;
63499;SDS011;49654;51.142;14.924;2022-12-19T02:12:58;29.27;;;14.73;;
63499;SDS011;49654;51.142;14.924;2022-12-19T02:15:26;29.00;;;14.10;;
63499;SDS011;49654;51.142;14.924;2022-12-19T02:18:02;26.20;;;12.90;;
63499;SDS011;49654;51.142;14.924;2022-12-19T02:21:02;31.07;;;14.20;;
63499;SDS011;49654;51.142;14.924;2022-12-19T02:23:46;29.27;;;14.43;;
63499;SDS011;49654;51.142;14.924;2022-12-19T02:29:37;30.43;;;13.93;;
63499;SDS011;49654;51.142;14.924;2022-12-19T02:32:20;29.93;;;14.13;;
63499;SDS011;49654;51.142;14.924;2022-12-19T02:34:57;30.70;;;14.00;;
63499;SDS011;49654;51.142;14.924;2022-12-19T02:37:29;26.90;;;13.23;;
63499;SDS011;49654;51.142;14.924;2022-12-19T02:40:01;25.63;;;13.30;;
63499;SDS011;49654;51.142;14.924;2022-12-19T02:42:31;27.13;;;13.73;;
63499;SDS011;49654;51.142;14.924;2022-12-19T02:45:04;23.83;;;12.27;;
63499;SDS011;49654;51.142;14.924;2022-12-19T02:47:34;27.47;;;13.00;;
63499;SDS011;49654;51.142;14.924;2022-12-19T02:50:03;24.47;;;12.57;;
63499;SDS011;49654;51.142;14.924;2022-12-19T02:52:42;27.77;;;12.97;;
63499;SDS011;49654;51.142;14.924;2022-12-19T02:55:13;29.17;;;13.07;;
63499;SDS011;49654;51.142;14.924;2022-12-19T02:57:57;25.60;;;12.83;;
63499;SDS011;49654;51.142;14.924;2022-12-19T03:00:47;24.83;;;12.80;;
63499;SDS011;49654;51.142;14.924;2022-12-19T03:03:22;24.07;;;12.80;;
63499;SDS011;49654;51.142;14.924;2022-12-19T03:06:00;28.43;;;13.80;;
63499;SDS011;49654;51.142;14.924;2022-12-19T03:08:35;24.33;;;12.40;;
63499;SDS011;49654;51.142;14.924;2022-12-19T03:11:10;24.73;;;12.10;;
63499;SDS011;49654;51.142;14.924;2022-12-19T03:13:40;29.67;;;13.30;;
63499;SDS011;49654;51.142;14.924;2022-12-19T03:16:10;23.47;;;12.20;;
63499;SDS011;49654;51.142;14.924;2022-12-19T03:18:40;21.40;;;10.97;;
63499;SDS011;49654;51.142;14.924;2022-12-19T03:21:08;26.97;;;13.30;;
63499;SDS011;49654;51.142;14.924;2022-12-19T03:23:40;22.77;;;12.60;;
63499;SDS011;49654;51.142;14.924;2022-12-19T03:26:10;23.73;;;11.30;;
63499;SDS011;49654;51.142;14.924;2022-12-19T03:28:42;25.33;;;12.53;;
63499;SDS011;49654;51.142;14.924;2022-12-19T03:31:14;25.37;;;12.17;;
63499;SDS011;49654;51.142;14.924;2022-12-19T03:33:44;26.10;;;13.33;;
63499;SDS011;49654;51.142;14.924;2022-12-19T03:36:18;27.67;;;12.17;;
63499;SDS011;49654;51.142;14.924;2022-12-19T03:38:50;28.23;;;13.90;;
63499;SDS011;49654;51.142;14.924;2022-12-19T03:41:18;24.77;;;12.13;;
63499;SDS011;49654;51.142;14.924;2022-12-19T03:44:07;24.73;;;11.33;;
63499;SDS011;49654;51.142;14.924;2022-12-19T03:46:37;28.27;;;13.17;;
63499;SDS011;49654;51.142;14.924;2022-12-19T03:49:08;26.20;;;13.27;;
63499;SDS011;49654;51.142;14.924;2022-12-19T03:51:38;22.10;;;11.93;;
63499;SDS011;49654;51.142;14.924;2022-12-19T03:54:12;26.93;;;12.07;;
63499;SDS011;49654;51.142;14.924;2022-12-19T03:56:44;27.00;;;13.90;;
63499;SDS011;49654;51.142;14.924;2022-12-19T03:59:17;29.60;;;14.87;;
63499;SDS011;49654;51.142;14.924;2022-12-19T04:01:49;28.80;;;14.77;;
63499;SDS011;49654;51.142;14.924;2022-12-19T04:04:20;30.33;;;15.03;;
63499;SDS011;49654;51.142;14.924;2022-12-19T04:06:48;25.93;;;13.57;;
63499;SDS011;49654;51.142;14.924;2022-12-19T04:09:16;29.93;;;14.73;;
63499;SDS011;49654;51.142;14.924;2022-12-19T04:11:48;29.67;;;15.03;;
63499;SDS011;49654;51.142;14.924;2022-12-19T04:14:18;29.20;;;14.00;;
63499;SDS011;49654;51.142;14.924;2022-12-19T04:16:52;29.33;;;15.53;;
63499;SDS011;49654;51.142;14.924;2022-12-19T04:19:26;28.77;;;14.47;;
63499;SDS011;49654;51.142;14.924;2022-12-19T04:21:59;30.43;;;14.53;;
63499;SDS011;49654;51.142;14.924;2022-12-19T04:24:32;28.87;;;14.73;;
63499;SDS011;49654;51.142;14.924;2022-12-19T04:27:03;28.47;;;14.57;;
63499;SDS011;49654;51.142;14.924;2022-12-19T04:29:34;29.10;;;14.20;;
63499;SDS011;49654;51.142;14.924;2022-12-19T04:32:04;32.87;;;15.30;;
63499;SDS011;49654;51.142;14.924;2022-12-19T04:34:35;34.13;;;14.60;;
63499;SDS011;49654;51.142;14.924;2022-12-19T04:37:02;33.70;;;16.13;;
63499;SDS011;49654;51.142;14.924;2022-12-19T04:39:29;24.97;;;12.13;;
63499;SDS011;49654;51.142;14.924;2022-12-19T04:41:56;31.47;;;17.00;;
63499;SDS011;49654;51.142;14.924;2022-12-19T04:44:24;31.47;;;14.60;;
63499;SDS011;49654;51.142;14.924;2022-12-19T04:46:51;33.50;;;16.23;;
63499;SDS011;49654;51.142;14.924;2022-12-19T04:49:18;30.53;;;16.17;;
63499;SDS011;49654;51.142;14.924;2022-12-19T04:51:47;33.03;;;14.87;;
63499;SDS011;49654;51.142;14.924;2022-12-19T04:54:14;29.83;;;14.77;;
63499;SDS011;49654;51.142;14.924;2022-12-19T04:56:41;29.07;;;15.10;;
63499;SDS011;49654;51.142;14.924;2022-12-19T04:59:08;33.57;;;16.13;;
63499;SDS011;49654;51.142;14.924;2022-12-19T05:01:35;31.77;;;16.00;;
63499;SDS011;49654;51.142;14.924;2022-12-19T05:04:02;29.13;;;15.40;;
63499;SDS011;49654;51.142;14.924;2022-12-19T05:06:30;34.53;;;16.40;;
63499;SDS011;49654;51.142;14.924;2022-12-19T05:08:58;28.40;;;15.40;;
63499;SDS011;49654;51.142;14.924;2022-12-19T05:11:25;32.50;;;16.73;;
63499;SDS011;49654;51.142;14.924;2022-12-19T05:13:52;31.37;;;15.70;;
63499;SDS011;49654;51.142;14.924;2022-12-19T05:16:19;30.50;;;16.00;;
63499;SDS011;49654;51.142;14.924;2022-12-19T05:18:46;31.23;;;15.73;;
63499;SDS011;49654;51.142;14.924;2022-12-19T05:21:13;35.63;;;16.23;;
63499;SDS011;49654;51.142;14.924;2022-12-19T05:23:40;32.80;;;15.07;;
63499;SDS011;49654;51.142;14.924;2022-12-19T05:26:09;32.37;;;16.20;;
63499;SDS011;49654;51.142;14.924;2022-12-19T05:28:37;28.57;;;14.37;;
63499;SDS011;49654;51.142;14.924;2022-12-19T05:31:05;33.00;;;17.23;;
63499;SDS011;49654;51.142;14.924;2022-12-19T05:33:33;36.83;;;16.70;;
63499;SDS011;49654;51.142;14.924;2022-12-19T05:36:01;32.10;;;16.37;;
63499;SDS011;49654;51.142;14.924;2022-12-19T05:38:29;31.53;;;15.47;;
63499;SDS011;49654;51.142;14.924;2022-12-19T05:40:56;31.50;;;16.03;;
63499;SDS011;49654;51.142;14.924;2022-12-19T05:43:25;29.27;;;15.17;;
63499;SDS011;49654;51.142;14.924;2022-12-19T05:45:52;33.60;;;15.67;;
63499;SDS011;49654;51.142;14.924;2022-12-19T05:48:19;27.97;;;15.80;;
63499;SDS011;49654;51.142;14.924;2022-12-19T05:50:47;34.93;;;16.80;;
63499;SDS011;49654;51.142;14.924;2022-12-19T05:53:15;32.97;;;16.50;;
63499;SDS011;49654;51.142;14.924;2022-12-19T05:55:42;31.77;;;15.97;;
63499;SDS011;49654;51.142;14.924;2022-12-19T05:58:10;32.13;;;16.27;;
63499;SDS011;49654;51.142;14.924;2022-12-19T06:00:38;32.17;;;16.57;;
63499;SDS011;49654;51.142;14.924;2022-12-19T06:03:05;35.60;;;17.43;;
63499;SDS011;49654;51.142;14.924;2022-12-19T06:05:35;32.73;;;16.53;;
63499;SDS011;49654;51.142;14.924;2022-12-19T06:08:03;34.60;;;17.87;;
63499;SDS011;49654;51.142;14.924;2022-12-19T06:10:30;37.03;;;17.47;;
63499;SDS011;49654;51.142;14.924;2022-12-19T06:12:57;33.33;;;16.67;;
63499;SDS011;49654;51.142;14.924;2022-12-19T06:15:24;34.10;;;16.30;;
63499;SDS011;49654;51.142;14.924;2022-12-19T06:17:53;37.40;;;17.73;;
63499;SDS011;49654;51.142;14.924;2022-12-19T06:20:20;30.77;;;15.13;;
63499;SDS011;49654;51.142;14.924;2022-12-19T06:22:47;29.43;;;16.20;;
63499;SDS011;49654;51.142;14.924;2022-12-19T06:25:14;34.80;;;16.63;;
63499;SDS011;49654;51.142;14.924;2022-12-19T06:27:41;33.57;;;17.17;;
63499;SDS011;49654;51.142;14.924;2022-12-19T06:30:08;33.73;;;15.27;;
63499;SDS011;49654;51.142;14.924;2022-12-19T06:32:36;31.53;;;17.17;;
63499;SDS011;49654;51.142;14.924;2022-12-19T06:35:05;32.00;;;16.13;;
63499;SDS011;49654;51.142;14.924;2022-12-19T06:37:33;32.97;;;17.20;;
63499;SDS011;49654;51.142;14.924;2022-12-19T06:40:00;29.20;;;14.63;;
63499;SDS011;49654;51.142;14.924;2022-12-19T06:42:27;34.40;;;16.67;;
63499;SDS011;49654;51.142;14.924;2022-12-19T06:44:54;39.57;;;18.60;;
63499;SDS011;49654;51.142;14.924;2022-12-19T06:47:22;34.83;;;17.60;;
63499;SDS011;49654;51.142;14.924;2022-12-19T06:49:49;33.73;;;16.93;;
63499;SDS011;49654;51.142;14.924;2022-12-19T06:52:18;34.23;;;16.70;;
63499;SDS011;49654;51.142;14.924;2022-12-19T06:54:45;36.33;;;18.27;;
63499;SDS011;49654;51.142;14.924;2022-12-19T06:57:12;28.43;;;14.40;;
63499;SDS011;49654;51.142;14.924;2022-12-19T06:59:39;36.70;;;18.67;;
63499;SDS011;49654;51.142;14.924;2022-12-19T07:02:08;33.43;;;18.13;;
63499;SDS011;49654;51.142;14.924;2022-12-19T07:04:47;32.60;;;17.03;;
63499;SDS011;49654;51.142;14.924;2022-12-19T07:07:18;38.33;;;18.90;;
63499;SDS011;49654;51.142;14.924;2022-12-19T07:09:45;36.33;;;18.47;;
63499;SDS011;49654;51.142;14.924;2022-12-19T07:12:14;35.40;;;19.17;;
63499;SDS011;49654;51.142;14.924;2022-12-19T07:14:41;36.23;;;19.10;;
63499;SDS011;49654;51.142;14.924;2022-12-19T07:17:08;37.93;;;18.67;;
63499;SDS011;49654;51.142;14.924;2022-12-19T07:19:35;33.83;;;17.07;;
63499;SDS011;49654;51.142;14.924;2022-12-19T07:22:03;40.20;;;19.20;;
63499;SDS011;49654;51.142;14.924;2022-12-19T07:24:32;34.00;;;16.40;;
63499;SDS011;49654;51.142;14.924;2022-12-19T07:27:01;32.57;;;16.43;;
63499;SDS011;49654;51.142;14.924;2022-12-19T07:29:28;34.27;;;18.47;;
63499;SDS011;49654;51.142;14.924;2022-12-19T07:31:55;34.23;;;16.23;;
63499;SDS011;49654;51.142;14.924;2022-12-19T07:34:22;36.63;;;18.33;;
63499;SDS011;49654;51.142;14.924;2022-12-19T07:36:49;34.40;;;18.33;;
63499;SDS011;49654;51.142;14.924;2022-12-19T07:39:16;38.83;;;19.30;;
63499;SDS011;49654;51.142;14.924;2022-12-19T07:41:44;33.10;;;17.60;;
63499;SDS011;49654;51.142;14.924;2022-12-19T07:44:12;35.50;;;18.53;;
63499;SDS011;49654;51.142;14.924;2022-12-19T07:46:41;35.73;;;17.20;;
63499;SDS011;49654;51.142;14.924;2022-12-19T07:49:08;33.63;;;17.47;;
63499;SDS011;49654;51.142;14.924;2022-12-19T07:51:35;37.27;;;19.03;;
63499;SDS011;49654;51.142;14.924;2022-12-19T07:54:03;36.93;;;18.93;;
63499;SDS011;49654;51.142;14.924;2022-12-19T07:56:30;34.33;;;18.53;;
63499;SDS011;49654;51.142;14.924;2022-12-19T07:58:59;35.27;;;18.90;;
63499;SDS011;49654;51.142;14.924;2022-12-19T08:01:26;35.23;;;19.20;;
63499;SDS011;49654;51.142;14.924;2022-12-19T08:03:53;38.63;;;19.07;;
63499;SDS011;49654;51.142;14.924;2022-12-19T08:06:20;34.60;;;19.80;;
63499;SDS011;49654;51.142;14.924;2022-12-19T08:08:47;36.53;;;18.60;;
63499;SDS011;49654;51.142;14.924;2022-12-19T08:11:19;38.03;;;19.33;;
63499;SDS011;49654;51.142;14.924;2022-12-19T08:13:51;35.53;;;19.27;;
63499;SDS011;49654;51.142;14.924;2022-12-19T08:16:19;35.43;;;19.23;;
63499;SDS011;49654;51.142;14.924;2022-12-19T08:18:47;37.50;;;19.00;;
63499;SDS011;49654;51.142;14.924;2022-12-19T08:21:14;40.00;;;20.37;;
63499;SDS011;49654;51.142;14.924;2022-12-19T08:23:42;37.13;;;18.83;;
63499;SDS011;49654;51.142;14.924;2022-12-19T08:26:11;35.27;;;19.27;;
63499;SDS011;49654;51.142;14.924;2022-12-19T08:28:40;38.00;;;19.27;;
63499;SDS011;49654;51.142;14.924;2022-12-19T08:31:08;36.47;;;18.17;;
63499;SDS011;49654;51.142;14.924;2022-12-19T08:33:38;35.83;;;18.43;;
63499;SDS011;49654;51.142;14.924;2022-12-19T08:36:06;36.23;;;16.73;;
63499;SDS011;49654;51.142;14.924;2022-12-19T08:38:35;34.90;;;18.20;;
63499;SDS011;49654;51.142;14.924;2022-12-19T08:41:04;41.93;;;20.00;;
63499;SDS011;49654;51.142;14.924;2022-12-19T08:43:31;35.07;;;18.63;;
63499;SDS011;49654;51.142;14.924;2022-12-19T08:45:59;36.63;;;20.03;;
63499;SDS011;49654;51.142;14.924;2022-12-19T08:48:26;40.53;;;19.80;;
63499;SDS011;49654;51.142;14.924;2022-12-19T08:50:54;41.00;;;19.37;;
63499;SDS011;49654;51.142;14.924;2022-12-19T08:53:23;34.30;;;18.43;;
63499;SDS011;49654;51.142;14.924;2022-12-19T08:55:52;37.33;;;19.80;;
63499;SDS011;49654;51.142;14.924;2022-12-19T08:58:21;37.90;;;19.03;;
63499;SDS011;49654;51.142;14.924;2022-12-19T09:00:48;37.87;;;18.67;;
63499;SDS011;49654;51.142;14.924;2022-12-19T09:03:17;36.77;;;19.60;;
63499;SDS011;49654;51.142;14.924;2022-12-19T09:05:44;38.47;;;21.17;;
63499;SDS011;49654;51.142;14.924;2022-12-19T09:08:13;40.57;;;19.77;;
63499;SDS011;49654;51.142;14.924;2022-12-19T09:10:40;36.50;;;20.23;;
63499;SDS011;49654;51.142;14.924;2022-12-19T09:13:07;31.73;;;18.57;;
63499;SDS011;49654;51.142;14.924;2022-12-19T09:15:34;36.70;;;20.37;;
63499;SDS011;49654;51.142;14.924;2022-12-19T09:18:01;37.97;;;20.10;;
63499;SDS011;49654;51.142;14.924;2022-12-19T09:20:29;37.73;;;19.13;;
63499;SDS011;49654;51.142;14.924;2022-12-19T09:22:56;37.50;;;19.07;;
63499;SDS011;49654;51.142;14.924;2022-12-19T09:25:24;36.67;;;19.57;;
63499;SDS011;49654;51.142;14.924;2022-12-19T09:27:51;36.97;;;20.37;;
63499;SDS011;49654;51.142;14.924;2022-12-19T09:30:19;38.33;;;17.93;;
63499;SDS011;49654;51.142;14.924;2022-12-19T09:32:46;39.40;;;18.30;;
63499;SDS011;49654;51.142;14.924;2022-12-19T09:35:14;37.13;;;19.23;;
63499;SDS011;49654;51.142;14.924;2022-12-19T09:37:41;36.50;;;19.10;;
63499;SDS011;49654;51.142;14.924;2022-12-19T09:40:10;36.77;;;19.17;;
63499;SDS011;49654;51.142;14.924;2022-12-19T09:42:49;39.03;;;18.67;;
63499;SDS011;49654;51.142;14.924;2022-12-19T09:45:24;33.80;;;19.17;;
63499;SDS011;49654;51.142;14.924;2022-12-19T09:48:02;41.07;;;17.63;;
63499;SDS011;49654;51.142;14.924;2022-12-19T09:50:32;37.70;;;18.83;;
63499;SDS011;49654;51.142;14.924;2022-12-19T09:53:14;30.37;;;16.60;;
63499;SDS011;49654;51.142;14.924;2022-12-19T09:55:44;34.70;;;18.93;;
63499;SDS011;49654;51.142;14.924;2022-12-19T09:58:17;38.43;;;19.03;;
63499;SDS011;49654;51.142;14.924;2022-12-19T10:00:56;35.23;;;18.83;;
63499;SDS011;49654;51.142;14.924;2022-12-19T10:03:28;40.97;;;19.93;;
63499;SDS011;49654;51.142;14.924;2022-12-19T10:05:59;33.07;;;18.30;;
63499;SDS011;49654;51.142;14.924;2022-12-19T10:08:32;37.20;;;19.93;;
63499;SDS011;49654;51.142;14.924;2022-12-19T10:11:04;34.80;;;18.10;;
63499;SDS011;49654;51.142;14.924;2022-12-19T10:13:39;33.30;;;18.90;;
63499;SDS011;49654;51.142;14.924;2022-12-19T10:16:19;38.37;;;20.13;;
63499;SDS011;49654;51.142;14.924;2022-12-19T10:18:55;37.57;;;19.73;;
63499;SDS011;49654;51.142;14.924;2022-12-19T10:21:30;34.83;;;19.47;;
63499;SDS011;49654;51.142;14.924;2022-12-19T10:24:11;30.63;;;18.23;;
63499;SDS011;49654;51.142;14.924;2022-12-19T10:27:13;37.00;;;19.60;;
63499;SDS011;49654;51.142;14.924;2022-12-19T10:29:54;28.63;;;15.60;;
63499;SDS011;49654;51.142;14.924;2022-12-19T10:32:30;42.57;;;21.53;;
63499;SDS011;49654;51.142;14.924;2022-12-19T10:35:06;36.60;;;19.30;;
63499;SDS011;49654;51.142;14.924;2022-12-19T10:37:40;39.03;;;20.03;;
63499;SDS011;49654;51.142;14.924;2022-12-19T10:40:13;36.67;;;20.47;;
63499;SDS011;49654;51.142;14.924;2022-12-19T10:42:47;38.77;;;21.90;;
63499;SDS011;49654;51.142;14.924;2022-12-19T10:45:21;36.57;;;20.60;;
63499;SDS011;49654;51.142;14.924;2022-12-19T10:47:50;38.00;;;21.37;;
63499;SDS011;49654;51.142;14.924;2022-12-19T10:50:22;40.63;;;21.20;;
63499;SDS011;49654;51.142;14.924;2022-12-19T10:52:52;39.07;;;21.90;;
63499;SDS011;49654;51.142;14.924;2022-12-19T10:55:36;38.30;;;20.47;;
63499;SDS011;49654;51.142;14.924;2022-12-19T10:58:11;36.73;;;19.90;;
63499;SDS011;49654;51.142;14.924;2022-12-19T11:03:48;40.77;;;21.57;;
63499;SDS011;49654;51.142;14.924;2022-12-19T11:06:41;36.53;;;20.83;;
63499;SDS011;49654;51.142;14.924;2022-12-19T11:09:21;42.30;;;22.07;;
63499;SDS011;49654;51.142;14.924;2022-12-19T11:11:58;40.07;;;22.27;;
63499;SDS011;49654;51.142;14.924;2022-12-19T11:14:28;41.03;;;22.03;;
63499;SDS011;49654;51.142;14.924;2022-12-19T11:16:58;39.73;;;21.07;;
63499;SDS011;49654;51.142;14.924;2022-12-19T11:19:26;42.23;;;21.47;;
63499;SDS011;49654;51.142;14.924;2022-12-19T11:21:56;41.83;;;21.97;;
63499;SDS011;49654;51.142;14.924;2022-12-19T11:24:27;45.33;;;22.63;;
63499;SDS011;49654;51.142;14.924;2022-12-19T11:26:57;44.57;;;22.33;;
63499;SDS011;49654;51.142;14.924;2022-12-19T11:29:24;40.00;;;21.57;;
63499;SDS011;49654;51.142;14.924;2022-12-19T11:31:55;40.33;;;22.67;;
63499;SDS011;49654;51.142;14.924;2022-12-19T11:34:27;43.90;;;22.13;;
63499;SDS011;49654;51.142;14.924;2022-12-19T11:36:56;43.63;;;23.17;;
63499;SDS011;49654;51.142;14.924;2022-12-19T11:39:30;43.57;;;23.07;;
63499;SDS011;49654;51.142;14.924;2022-12-19T11:42:02;42.97;;;21.13;;
63499;SDS011;49654;51.142;14.924;2022-12-19T11:44:35;39.67;;;20.97;;
63499;SDS011;49654;51.142;14.924;2022-12-19T11:47:10;39.50;;;21.90;;
63499;SDS011;49654;51.142;14.924;2022-12-19T11:49:47;44.13;;;22.93;;
63499;SDS011;49654;51.142;14.924;2022-12-19T11:52:22;38.60;;;22.67;;
63499;SDS011;49654;51.142;14.924;2022-12-19T11:55:02;41.77;;;21.57;;
63499;SDS011;49654;51.142;14.924;2022-12-19T11:57:33;43.67;;;22.93;;
63499;SDS011;49654;51.142;14.924;2022-12-19T12:00:03;39.57;;;21.73;;
63499;SDS011;49654;51.142;14.924;2022-12-19T12:02:41;36.93;;;21.90;;
63499;SDS011;49654;51.142;14.924;2022-12-19T12:11:21;40.80;;;21.17;;
63499;SDS011;49654;51.142;14.924;2022-12-19T12:13:56;42.70;;;23.33;;
63499;SDS011;49654;51.142;14.924;2022-12-19T12:16:34;46.90;;;24.03;;
63499;SDS011;49654;51.142;14.924;2022-12-19T12:19:11;38.60;;;21.43;;
63499;SDS011;49654;51.142;14.924;2022-12-19T12:21:46;41.70;;;22.50;;
63499;SDS011;49654;51.142;14.924;2022-12-19T12:24:21;40.07;;;21.80;;
63499;SDS011;49654;51.142;14.924;2022-12-19T12:27:04;40.07;;;20.43;;
63499;SDS011;49654;51.142;14.924;2022-12-19T12:29:45;43.53;;;22.77;;
63499;SDS011;49654;51.142;14.924;2022-12-19T12:32:23;38.83;;;22.30;;
63499;SDS011;49654;51.142;14.924;2022-12-19T12:35:02;37.17;;;20.07;;
63499;SDS011;49654;51.142;14.924;2022-12-19T12:37:44;38.07;;;20.60;;
63499;SDS011;49654;51.142;14.924;2022-12-19T12:40:34;36.67;;;21.03;;
63499;SDS011;49654;51.142;14.924;2022-12-19T12:43:16;39.93;;;22.03;;
63499;SDS011;49654;51.142;14.924;2022-12-19T12:45:54;40.47;;;22.53;;
63499;SDS011;49654;51.142;14.924;2022-12-19T12:48:23;42.90;;;21.50;;
63499;SDS011;49654;51.142;14.924;2022-12-19T12:50:53;35.70;;;19.67;;
63499;SDS011;49654;51.142;14.924;2022-12-19T12:53:23;38.83;;;20.33;;
63499;SDS011;49654;51.142;14.924;2022-12-19T12:55:54;41.93;;;22.70;;
63499;SDS011;49654;51.142;14.924;2022-12-19T13:01:31;33.77;;;18.57;;
63499;SDS011;49654;51.142;14.924;2022-12-19T13:04:02;39.27;;;20.90;;
63499;SDS011;49654;51.142;14.924;2022-12-19T13:06:32;39.87;;;21.37;;
63499;SDS011;49654;51.142;14.924;2022-12-19T13:09:04;39.67;;;21.23;;
63499;SDS011;49654;51.142;14.924;2022-12-19T13:11:47;40.07;;;21.83;;
63499;SDS011;49654;51.142;14.924;2022-12-19T13:14:40;36.87;;;21.47;;
63499;SDS011;49654;51.142;14.924;2022-12-19T13:17:10;35.97;;;19.73;;
63499;SDS011;49654;51.142;14.924;2022-12-19T13:19:38;38.43;;;21.70;;
63499;SDS011;49654;51.142;14.924;2022-12-19T13:22:18;39.57;;;20.60;;
63499;SDS011;49654;51.142;14.924;2022-12-19T13:24:49;35.27;;;20.77;;
63499;SDS011;49654;51.142;14.924;2022-12-19T13:30:13;40.50;;;21.10;;
63499;SDS011;49654;51.142;14.924;2022-12-19T13:35:36;40.77;;;20.83;;
63499;SDS011;49654;51.142;14.924;2022-12-19T13:38:17;36.17;;;20.93;;
63499;SDS011;49654;51.142;14.924;2022-12-19T13:40:53;31.83;;;18.37;;
63499;SDS011;49654;51.142;14.924;2022-12-19T13:43:23;39.03;;;21.30;;
63499;SDS011;49654;51.142;14.924;2022-12-19T13:46:21;33.57;;;19.33;;
63499;SDS011;49654;51.142;14.924;2022-12-19T13:48:53;36.13;;;19.50;;
63499;SDS011;49654;51.142;14.924;2022-12-19T13:51:25;38.80;;;21.83;;
63499;SDS011;49654;51.142;14.924;2022-12-19T13:53:52;36.33;;;21.07;;
63499;SDS011;49654;51.142;14.924;2022-12-19T13:56:21;37.40;;;21.27;;
63499;SDS011;49654;51.142;14.924;2022-12-19T13:58:49;40.43;;;22.10;;
63499;SDS011;49654;51.142;14.924;2022-12-19T14:01:20;36.03;;;20.07;;
63499;SDS011;49654;51.142;14.924;2022-12-19T14:03:51;40.13;;;21.33;;
63499;SDS011;49654;51.142;14.924;2022-12-19T14:06:21;44.17;;;21.73;;
63499;SDS011;49654;51.142;14.924;2022-12-19T14:08:51;39.03;;;20.90;;
63499;SDS011;49654;51.142;14.924;2022-12-19T14:11:25;38.50;;;20.90;;
63499;SDS011;49654;51.142;14.924;2022-12-19T14:13:56;39.13;;;20.60;;
63499;SDS011;49654;51.142;14.924;2022-12-19T14:16:43;34.47;;;19.53;;
63499;SDS011;49654;51.142;14.924;2022-12-19T14:19:20;37.03;;;21.00;;
63499;SDS011;49654;51.142;14.924;2022-12-19T14:21:48;36.93;;;20.33;;
63499;SDS011;49654;51.142;14.924;2022-12-19T14:24:16;36.70;;;21.07;;
63499;SDS011;49654;51.142;14.924;2022-12-19T14:26:47;39.43;;;21.70;;
63499;SDS011;49654;51.142;14.924;2022-12-19T14:29:18;42.27;;;21.57;;
63499;SDS011;49654;51.142;14.924;2022-12-19T14:31:49;37.93;;;21.17;;
63499;SDS011;49654;51.142;14.924;2022-12-19T14:34:19;34.77;;;19.47;;
63499;SDS011;49654;51.142;14.924;2022-12-19T14:36:50;35.40;;;19.67;;
63499;SDS011;49654;51.142;14.924;2022-12-19T14:39:20;40.53;;;21.40;;
63499;SDS011;49654;51.142;14.924;2022-12-19T14:41:50;39.50;;;20.93;;
63499;SDS011;49654;51.142;14.924;2022-12-19T14:44:44;33.30;;;20.13;;
63499;SDS011;49654;51.142;14.924;2022-12-19T14:47:20;37.30;;;21.33;;
63499;SDS011;49654;51.142;14.924;2022-12-19T14:49:49;41.73;;;22.43;;
63499;SDS011;49654;51.142;14.924;2022-12-19T14:55:14;40.37;;;22.40;;